createdAt,value
2023-03-23T00:00:12.748Z,10.80
2023-03-23T00:01:12.793Z,10.84
2023-03-23T00:02:12.800Z,10.84
2023-03-23T00:03:12.794Z,10.76
2023-03-23T00:04:12.821Z,10.77
2023-03-23T00:05:12.840Z,10.72
2023-03-23T00:06:12.851Z,10.69
2023-03-23T00:07:12.854Z,10.69
2023-03-23T00:08:12.880Z,10.72
2023-03-23T00:09:12.886Z,10.69
2023-03-23T00:10:12.901Z,10.67
2023-03-23T00:11:12.915Z,10.58
2023-03-23T00:12:12.932Z,10.57
2023-03-23T00:13:12.946Z,10.55
2023-03-23T00:14:12.958Z,10.51
2023-03-23T00:15:12.978Z,10.48
2023-03-23T00:16:12.988Z,10.57
2023-03-23T00:17:13.007Z,10.45
2023-03-23T00:18:13.021Z,10.49
2023-03-23T00:19:13.039Z,10.45
2023-03-23T00:20:13.057Z,10.46
2023-03-23T00:21:13.069Z,10.43
2023-03-23T00:22:13.081Z,10.43
2023-03-23T00:23:13.094Z,10.38
2023-03-23T00:24:13.110Z,10.33
2023-03-23T00:25:13.183Z,10.34
2023-03-23T00:26:13.141Z,10.39
2023-03-23T00:27:13.204Z,10.31
2023-03-23T00:28:13.169Z,10.30
2023-03-23T00:29:13.186Z,10.25
2023-03-23T00:30:13.208Z,10.27
2023-03-23T00:31:13.218Z,10.33
2023-03-23T00:32:13.232Z,10.28
2023-03-23T00:33:13.250Z,10.17
2023-03-23T00:34:13.265Z,10.21
2023-03-23T00:35:13.275Z,10.18
2023-03-23T00:36:13.292Z,10.17
2023-03-23T00:37:13.314Z,10.21
2023-03-23T00:38:13.324Z,10.20
2023-03-23T00:39:13.343Z,10.09
2023-03-23T00:40:13.353Z,10.07
2023-03-23T00:41:13.378Z,10.13
2023-03-23T00:42:13.381Z,10.10
2023-03-23T00:43:13.403Z,10.10
2023-03-23T00:44:13.410Z,10.07
2023-03-23T00:45:13.429Z,10.09
2023-03-23T00:46:13.440Z,10.00
2023-03-23T00:47:13.465Z,10.05
2023-03-23T00:48:13.467Z,9.95
2023-03-23T00:49:13.485Z,10.00
2023-03-23T00:50:13.502Z,10.03
2023-03-23T00:51:13.512Z,10.00
2023-03-23T00:52:13.528Z,10.05
2023-03-23T00:53:13.544Z,10.02
2023-03-23T00:54:13.559Z,10.00
2023-03-23T00:55:13.570Z,9.97
2023-03-23T00:56:13.587Z,10.06
2023-03-23T00:57:13.600Z,9.97
2023-03-23T00:58:13.619Z,9.92
2023-03-23T00:59:13.629Z,9.88
2023-03-23T01:00:13.651Z,9.90
2023-03-23T01:01:13.702Z,9.91
2023-03-23T01:02:13.674Z,9.87
2023-03-23T01:03:13.697Z,9.88
2023-03-23T01:04:13.702Z,9.88
2023-03-23T01:05:13.717Z,9.87
2023-03-23T01:06:13.730Z,9.84
2023-03-23T01:07:13.745Z,9.81
2023-03-23T01:08:13.758Z,9.85
2023-03-23T01:09:13.774Z,9.87
2023-03-23T01:10:13.810Z,9.87
2023-03-23T01:11:13.805Z,9.84
2023-03-23T01:12:13.816Z,9.82
2023-03-23T01:13:13.830Z,9.82
2023-03-23T01:14:13.856Z,9.74
2023-03-23T01:15:13.861Z,9.76
2023-03-23T01:16:13.876Z,9.74
2023-03-23T01:17:13.890Z,9.84
2023-03-23T01:18:13.909Z,9.72
2023-03-23T01:19:13.918Z,9.76
2023-03-23T01:20:13.931Z,9.76
2023-03-23T01:21:13.945Z,9.73
2023-03-23T01:22:13.963Z,9.67
2023-03-23T01:23:13.973Z,9.73
2023-03-23T01:24:13.988Z,9.72
2023-03-23T01:25:14.003Z,9.77
2023-03-23T01:26:14.016Z,9.64
2023-03-23T01:27:14.033Z,9.70
2023-03-23T01:28:14.044Z,9.67
2023-03-23T01:29:14.059Z,9.69
2023-03-23T01:30:14.081Z,9.62
2023-03-23T01:31:14.632Z,9.64
2023-03-23T01:32:14.098Z,9.64
2023-03-23T01:33:14.118Z,9.64
2023-03-23T01:34:14.133Z,9.62
2023-03-23T01:35:14.147Z,9.59
2023-03-23T01:36:14.161Z,9.59
2023-03-23T01:37:14.178Z,9.64
2023-03-23T01:38:14.188Z,9.62
2023-03-23T01:39:14.220Z,9.56
2023-03-23T01:40:14.217Z,9.51
2023-03-23T01:41:14.235Z,9.55
2023-03-23T01:42:14.247Z,9.52
2023-03-23T01:43:14.261Z,9.54
2023-03-23T01:44:14.280Z,9.52
2023-03-23T01:45:14.289Z,9.47
2023-03-23T01:46:14.306Z,9.44
2023-03-23T01:47:14.316Z,9.48
2023-03-23T01:48:14.332Z,9.48
2023-03-23T01:49:14.349Z,9.49
2023-03-23T01:50:14.368Z,9.54
2023-03-23T01:51:14.377Z,9.52
2023-03-23T01:52:14.389Z,9.56
2023-03-23T01:53:14.402Z,9.62
2023-03-23T01:54:14.418Z,9.59
2023-03-23T01:55:14.433Z,9.59
2023-03-23T01:56:14.448Z,9.62
2023-03-23T01:57:14.461Z,9.58
2023-03-23T01:58:14.478Z,9.63
2023-03-23T01:59:14.491Z,9.74
2023-03-23T02:00:14.504Z,9.76
2023-03-23T02:01:14.521Z,9.72
2023-03-23T02:02:14.533Z,9.73
2023-03-23T02:03:14.545Z,9.81
2023-03-23T02:04:14.564Z,9.73
2023-03-23T02:05:14.578Z,9.76
2023-03-23T02:06:14.593Z,9.76
2023-03-23T02:07:14.604Z,9.70
2023-03-23T02:08:14.619Z,9.74
2023-03-23T02:09:14.639Z,9.80
2023-03-23T02:10:14.670Z,9.77
2023-03-23T02:11:22.066Z,9.74
2023-03-23T02:12:14.705Z,9.74
2023-03-23T02:13:14.712Z,9.76
2023-03-23T02:14:14.713Z,9.80
2023-03-23T02:15:14.731Z,9.76
2023-03-23T02:16:14.779Z,9.82
2023-03-23T02:17:14.768Z,9.82
2023-03-23T02:18:14.773Z,9.82
2023-03-23T02:19:14.778Z,9.77
2023-03-23T02:20:14.789Z,9.87
2023-03-23T02:21:14.836Z,9.91
2023-03-23T02:22:14.818Z,9.92
2023-03-23T02:23:14.844Z,9.92
2023-03-23T02:24:14.886Z,9.95
2023-03-23T02:25:14.857Z,10.00
2023-03-23T02:26:14.878Z,10.02
2023-03-23T02:27:14.888Z,9.99
2023-03-23T02:28:14.903Z,10.05
2023-03-23T02:29:14.915Z,10.00
2023-03-23T02:30:14.933Z,10.06
2023-03-23T02:31:14.946Z,10.12
2023-03-23T02:32:14.964Z,10.18
2023-03-23T02:33:14.974Z,10.15
2023-03-23T02:34:14.989Z,10.18
2023-03-23T02:35:15.006Z,10.21
2023-03-23T02:36:15.021Z,10.28
2023-03-23T02:37:15.033Z,10.21
2023-03-23T02:38:15.049Z,10.31
2023-03-23T02:39:15.070Z,10.24
2023-03-23T02:40:15.085Z,10.34
2023-03-23T02:41:15.098Z,10.28
2023-03-23T02:42:15.674Z,10.33
2023-03-23T02:43:15.122Z,10.34
2023-03-23T02:44:15.139Z,10.42
2023-03-23T02:45:15.161Z,10.43
2023-03-23T02:46:15.168Z,10.36
2023-03-23T02:47:15.179Z,10.33
2023-03-23T02:48:15.191Z,10.39
2023-03-23T02:49:15.208Z,10.43
2023-03-23T02:50:15.225Z,10.36
2023-03-23T02:51:15.238Z,10.46
2023-03-23T02:52:15.253Z,10.46
2023-03-23T02:53:15.271Z,10.46
2023-03-23T02:54:15.282Z,10.41
2023-03-23T02:55:15.297Z,10.39
2023-03-23T02:56:15.311Z,10.43
2023-03-23T02:57:15.324Z,10.38
2023-03-23T02:58:15.343Z,10.49
2023-03-23T02:59:15.354Z,10.30
2023-03-23T03:00:15.372Z,10.31
2023-03-23T03:01:15.386Z,10.36
2023-03-23T03:02:15.418Z,10.34
2023-03-23T03:03:15.412Z,10.39
2023-03-23T03:04:15.432Z,10.42
2023-03-23T03:05:15.446Z,10.28
2023-03-23T03:06:15.466Z,10.33
2023-03-23T03:07:15.471Z,10.31
2023-03-23T03:08:15.493Z,10.36
2023-03-23T03:09:15.499Z,10.38
2023-03-23T03:10:17.440Z,10.39
2023-03-23T03:11:15.533Z,10.36
2023-03-23T03:12:15.543Z,10.34
2023-03-23T03:13:15.558Z,10.34
2023-03-23T03:14:15.574Z,10.38
2023-03-23T03:15:15.586Z,10.31
2023-03-23T03:16:15.601Z,10.30
2023-03-23T03:17:15.618Z,10.38
2023-03-23T03:18:15.632Z,10.30
2023-03-23T03:19:17.299Z,10.34
2023-03-23T03:20:15.698Z,10.34
2023-03-23T03:21:15.702Z,10.34
2023-03-23T03:22:15.692Z,10.30
2023-03-23T03:23:15.705Z,10.39
2023-03-23T03:24:15.719Z,10.28
2023-03-23T03:25:18.643Z,10.30
2023-03-23T03:26:15.752Z,10.33
2023-03-23T03:27:15.765Z,10.34
2023-03-23T03:28:15.779Z,10.34
2023-03-23T03:29:15.801Z,10.34
2023-03-23T03:30:15.810Z,10.33
2023-03-23T03:31:15.829Z,10.38
2023-03-23T03:32:15.843Z,10.38
2023-03-23T03:33:15.857Z,10.30
2023-03-23T03:34:15.872Z,10.34
2023-03-23T03:35:15.882Z,10.34
2023-03-23T03:36:15.906Z,10.43
2023-03-23T03:37:15.915Z,10.41
2023-03-23T03:38:15.926Z,10.39
2023-03-23T03:39:15.946Z,10.41
2023-03-23T03:40:15.981Z,10.53
2023-03-23T03:41:15.970Z,10.46
2023-03-23T03:42:15.986Z,10.45
2023-03-23T03:43:16.001Z,10.42
2023-03-23T03:44:16.017Z,10.46
2023-03-23T03:45:16.052Z,10.51
2023-03-23T03:46:16.049Z,10.45
2023-03-23T03:47:16.065Z,10.41
2023-03-23T03:48:16.073Z,10.41
2023-03-23T03:49:16.090Z,10.36
2023-03-23T03:50:16.104Z,10.27
2023-03-23T03:51:16.122Z,10.31
2023-03-23T03:52:16.133Z,10.36
2023-03-23T03:53:16.149Z,10.31
2023-03-23T03:54:16.164Z,10.30
2023-03-23T03:55:16.176Z,10.33
2023-03-23T03:56:16.190Z,10.33
2023-03-23T03:57:16.205Z,10.34
2023-03-23T03:58:16.222Z,10.25
2023-03-23T03:59:21.687Z,10.30
2023-03-23T04:00:16.257Z,10.28
2023-03-23T04:01:16.265Z,10.30
2023-03-23T04:02:16.280Z,10.34
2023-03-23T04:03:16.290Z,10.31
2023-03-23T04:04:16.313Z,10.31
2023-03-23T04:05:16.335Z,10.30
2023-03-23T04:06:16.339Z,10.27
2023-03-23T04:07:16.352Z,10.27
2023-03-23T04:08:16.368Z,10.30
2023-03-23T04:09:16.382Z,10.24
2023-03-23T04:10:16.399Z,10.21
2023-03-23T04:11:33.125Z,10.21
2023-03-23T04:12:16.427Z,10.24
2023-03-23T04:13:16.438Z,10.24
2023-03-23T04:14:16.455Z,10.20
2023-03-23T04:15:16.468Z,10.28
2023-03-23T04:16:16.491Z,10.25
2023-03-23T04:17:16.499Z,10.25
2023-03-23T04:18:16.518Z,10.18
2023-03-23T04:19:16.529Z,10.09
2023-03-23T04:20:16.546Z,10.10
2023-03-23T04:21:16.557Z,10.27
2023-03-23T04:22:16.574Z,10.15
2023-03-23T04:23:16.586Z,10.25
2023-03-23T04:24:23.358Z,10.20
2023-03-23T04:25:16.642Z,10.18
2023-03-23T04:26:16.642Z,10.25
2023-03-23T04:27:16.648Z,10.17
2023-03-23T04:28:16.669Z,10.20
2023-03-23T04:29:16.678Z,10.21
2023-03-23T04:30:16.689Z,10.17
2023-03-23T04:31:16.710Z,10.27
2023-03-23T04:32:16.729Z,10.20
2023-03-23T04:33:16.739Z,10.17
2023-03-23T04:34:16.750Z,10.24
2023-03-23T04:35:16.768Z,10.10
2023-03-23T04:36:16.802Z,10.17
2023-03-23T04:37:16.795Z,10.18
2023-03-23T04:38:16.812Z,10.15
2023-03-23T04:39:16.821Z,10.23
2023-03-23T04:40:16.838Z,10.13
2023-03-23T04:41:16.852Z,10.18
2023-03-23T04:42:16.866Z,10.13
2023-03-23T04:43:16.891Z,10.15
2023-03-23T04:44:16.892Z,10.13
2023-03-23T04:45:16.914Z,10.15
2023-03-23T04:46:16.927Z,10.07
2023-03-23T04:47:16.938Z,10.15
2023-03-23T04:48:16.958Z,10.13
2023-03-23T04:49:16.969Z,10.10
2023-03-23T04:50:16.989Z,10.17
2023-03-23T04:51:16.998Z,10.13
2023-03-23T04:52:17.018Z,10.10
2023-03-23T04:53:17.030Z,10.17
2023-03-23T04:54:17.045Z,10.10
2023-03-23T04:55:17.056Z,10.15
2023-03-23T04:56:17.074Z,10.12
2023-03-23T04:57:17.099Z,10.18
2023-03-23T04:58:17.100Z,10.17
2023-03-23T04:59:17.117Z,10.10
2023-03-23T05:00:17.132Z,10.12
2023-03-23T05:01:17.147Z,10.17
2023-03-23T05:02:17.161Z,10.17
2023-03-23T05:03:17.174Z,10.12
2023-03-23T05:04:17.189Z,10.20
2023-03-23T05:05:17.201Z,10.10
2023-03-23T05:06:17.221Z,10.09
2023-03-23T05:07:17.231Z,10.12
2023-03-23T05:08:17.255Z,10.00
2023-03-23T05:09:17.264Z,9.99
2023-03-23T05:10:17.275Z,10.00
2023-03-23T05:11:17.290Z,10.02
2023-03-23T05:12:17.303Z,9.99
2023-03-23T05:13:17.321Z,9.99
2023-03-23T05:14:17.334Z,9.99
2023-03-23T05:15:17.348Z,9.91
2023-03-23T05:16:17.380Z,9.92
2023-03-23T05:17:17.381Z,9.95
2023-03-23T05:18:17.391Z,9.94
2023-03-23T05:19:17.410Z,9.85
2023-03-23T05:20:17.422Z,9.85
2023-03-23T05:21:17.436Z,9.91
2023-03-23T05:22:17.450Z,9.88
2023-03-23T05:23:17.467Z,9.81
2023-03-23T05:24:17.476Z,9.84
2023-03-23T05:25:17.491Z,9.85
2023-03-23T05:26:17.504Z,9.85
2023-03-23T05:27:17.518Z,9.82
2023-03-23T05:28:17.534Z,9.81
2023-03-23T05:29:17.549Z,9.77
2023-03-23T05:30:17.563Z,9.74
2023-03-23T05:31:17.578Z,9.80
2023-03-23T05:32:17.595Z,9.76
2023-03-23T05:33:17.605Z,9.77
2023-03-23T05:34:17.619Z,9.74
2023-03-23T05:35:17.635Z,9.74
2023-03-23T05:36:17.688Z,9.77
2023-03-23T05:37:17.660Z,9.73
2023-03-23T05:38:17.673Z,9.73
2023-03-23T05:39:17.692Z,9.69
2023-03-23T05:40:17.701Z,9.76
2023-03-23T05:41:17.737Z,9.76
2023-03-23T05:42:17.731Z,9.67
2023-03-23T05:43:17.742Z,9.70
2023-03-23T05:44:17.763Z,9.70
2023-03-23T05:45:17.770Z,9.74
2023-03-23T05:46:17.787Z,9.72
2023-03-23T05:47:17.796Z,9.66
2023-03-23T05:48:17.814Z,9.69
2023-03-23T05:49:17.830Z,9.72
2023-03-23T05:50:17.839Z,9.70
2023-03-23T05:51:17.858Z,9.69
2023-03-23T05:52:17.870Z,9.64
2023-03-23T05:53:17.884Z,9.73
2023-03-23T05:54:17.896Z,9.66
2023-03-23T05:55:17.912Z,9.72
2023-03-23T05:56:17.923Z,9.73
2023-03-23T05:57:17.938Z,9.72
2023-03-23T05:58:17.958Z,9.76
2023-03-23T05:59:17.966Z,9.73
2023-03-23T06:00:17.986Z,9.76
2023-03-23T06:01:17.992Z,9.72
2023-03-23T06:02:18.019Z,9.67
2023-03-23T06:03:18.029Z,9.73
2023-03-23T06:04:18.035Z,9.74
2023-03-23T06:05:18.055Z,9.70
2023-03-23T06:06:18.065Z,9.73
2023-03-23T06:07:18.078Z,9.74
2023-03-23T06:08:18.093Z,9.74
2023-03-23T06:09:18.121Z,9.74
2023-03-23T06:10:18.141Z,9.72
2023-03-23T06:11:18.133Z,9.77
2023-03-23T06:12:18.145Z,9.74
2023-03-23T06:13:18.163Z,9.76
2023-03-23T06:14:18.175Z,9.76
2023-03-23T06:15:18.189Z,9.80
2023-03-23T06:16:18.199Z,9.77
2023-03-23T06:17:18.215Z,9.81
2023-03-23T06:18:18.230Z,9.74
2023-03-23T06:19:18.241Z,9.74
2023-03-23T06:20:18.253Z,9.84
2023-03-23T06:21:18.543Z,9.80
2023-03-23T06:22:18.283Z,9.81
2023-03-23T06:23:18.306Z,9.80
2023-03-23T06:24:18.311Z,9.81
2023-03-23T06:25:18.323Z,9.85
2023-03-23T06:26:18.340Z,9.88
2023-03-23T06:27:18.351Z,9.84
2023-03-23T06:28:18.365Z,9.90
2023-03-23T06:29:18.384Z,9.85
2023-03-23T06:30:18.394Z,9.88
2023-03-23T06:31:18.406Z,9.84
2023-03-23T06:32:18.420Z,9.94
2023-03-23T06:33:19.841Z,9.92
2023-03-23T06:34:18.449Z,9.92
2023-03-23T06:35:18.464Z,9.90
2023-03-23T06:36:18.530Z,9.94
2023-03-23T06:37:18.489Z,9.94
2023-03-23T06:38:18.504Z,9.95
2023-03-23T06:39:18.527Z,10.00
2023-03-23T06:40:18.533Z,10.02
2023-03-23T06:41:18.559Z,10.02
2023-03-23T06:42:18.559Z,10.02
2023-03-23T06:43:18.573Z,9.95
2023-03-23T06:44:18.602Z,9.95
2023-03-23T06:45:18.599Z,9.99
2023-03-23T06:46:18.613Z,10.06
2023-03-23T06:47:18.628Z,10.09
2023-03-23T06:48:18.650Z,10.12
2023-03-23T06:49:19.483Z,10.15
2023-03-23T06:50:18.670Z,10.12
2023-03-23T06:51:18.685Z,10.12
2023-03-23T06:52:18.698Z,10.13
2023-03-23T06:53:18.713Z,10.15
2023-03-23T06:54:18.725Z,10.20
2023-03-23T06:55:18.740Z,10.28
2023-03-23T06:56:18.754Z,10.07
2023-03-23T06:57:18.766Z,10.17
2023-03-23T06:58:18.783Z,10.21
2023-03-23T06:59:18.797Z,10.23
2023-03-23T07:00:18.810Z,10.30
2023-03-23T07:01:18.829Z,10.27
2023-03-23T07:02:18.840Z,10.24
2023-03-23T07:03:18.858Z,10.27
2023-03-23T07:04:18.867Z,10.28
2023-03-23T07:05:18.879Z,10.34
2023-03-23T07:06:18.896Z,10.30
2023-03-23T07:07:18.909Z,10.23
2023-03-23T07:08:18.924Z,10.34
2023-03-23T07:09:18.940Z,10.31
2023-03-23T07:10:18.959Z,10.31
2023-03-23T07:11:18.968Z,10.27
2023-03-23T07:12:18.980Z,10.34
2023-03-23T07:13:19.015Z,10.33
2023-03-23T07:14:19.012Z,10.34
2023-03-23T07:15:19.021Z,10.34
2023-03-23T07:16:19.182Z,10.34
2023-03-23T07:17:19.061Z,10.36
2023-03-23T07:18:19.066Z,10.38
2023-03-23T07:19:19.082Z,10.33
2023-03-23T07:20:19.094Z,10.46
2023-03-23T07:21:19.113Z,10.39
2023-03-23T07:22:19.135Z,10.42
2023-03-23T07:23:19.140Z,10.43
2023-03-23T07:24:19.153Z,10.45
2023-03-23T07:25:19.169Z,10.49
2023-03-23T07:26:19.185Z,10.42
2023-03-23T07:27:19.194Z,10.42
2023-03-23T07:28:19.213Z,10.39
2023-03-23T07:29:19.224Z,10.51
2023-03-23T07:30:19.474Z,10.45
2023-03-23T07:31:19.253Z,10.45
2023-03-23T07:32:19.267Z,10.48
2023-03-23T07:33:19.284Z,10.49
2023-03-23T07:34:19.299Z,10.51
2023-03-23T07:35:19.311Z,10.57
2023-03-23T07:36:19.342Z,10.55
2023-03-23T07:37:19.342Z,10.59
2023-03-23T07:38:19.355Z,10.55
2023-03-23T07:39:19.368Z,10.58
2023-03-23T07:40:19.386Z,10.59
2023-03-23T07:41:19.399Z,10.72
2023-03-23T07:42:19.414Z,10.72
2023-03-23T07:43:19.428Z,10.69
2023-03-23T07:44:19.441Z,10.61
2023-03-23T07:45:19.461Z,10.65
2023-03-23T07:46:19.472Z,10.69
2023-03-23T07:47:19.483Z,10.76
2023-03-23T07:48:21.448Z,10.71
2023-03-23T07:49:19.517Z,10.76
2023-03-23T07:50:19.675Z,10.71
2023-03-23T07:51:19.545Z,10.79
2023-03-23T07:52:19.560Z,10.84
2023-03-23T07:53:19.574Z,10.87
2023-03-23T07:54:19.588Z,10.90
2023-03-23T07:55:19.601Z,10.83
2023-03-23T07:56:19.617Z,10.92
2023-03-23T07:57:19.633Z,10.94
2023-03-23T07:58:19.650Z,10.89
2023-03-23T07:59:19.669Z,10.92
2023-03-23T08:00:19.682Z,10.89
2023-03-23T08:01:19.693Z,10.94
2023-03-23T08:02:19.705Z,10.92
2023-03-23T08:03:19.721Z,11.04
2023-03-23T08:04:19.739Z,10.98
2023-03-23T08:05:19.755Z,11.02
2023-03-23T08:06:19.771Z,11.00
2023-03-23T08:07:20.079Z,10.98
2023-03-23T08:08:19.801Z,11.05
2023-03-23T08:09:20.087Z,11.08
2023-03-23T08:10:19.830Z,11.10
2023-03-23T08:11:19.846Z,11.19
2023-03-23T08:12:19.859Z,11.16
2023-03-23T08:13:19.878Z,11.12
2023-03-23T08:14:21.873Z,11.18
2023-03-23T08:15:19.906Z,11.18
2023-03-23T08:16:19.926Z,11.20
2023-03-23T08:17:19.933Z,11.20
2023-03-23T08:18:19.955Z,11.23
2023-03-23T08:19:19.999Z,11.19
2023-03-23T08:20:19.982Z,11.23
2023-03-23T08:21:20.004Z,11.19
2023-03-23T08:22:20.019Z,11.26
2023-03-23T08:23:20.026Z,11.27
2023-03-23T08:24:20.044Z,11.26
2023-03-23T08:25:20.065Z,11.27
2023-03-23T08:26:20.081Z,11.16
2023-03-23T08:27:20.089Z,11.20
2023-03-23T08:28:20.105Z,11.22
2023-03-23T08:29:20.125Z,11.22
2023-03-23T08:30:20.137Z,11.23
2023-03-23T08:31:20.151Z,11.23
2023-03-23T08:32:20.171Z,11.27
2023-03-23T08:33:20.186Z,11.26
2023-03-23T08:34:20.204Z,11.23
2023-03-23T08:35:20.216Z,11.22
2023-03-23T08:36:20.253Z,11.22
2023-03-23T08:37:20.250Z,11.20
2023-03-23T08:38:20.312Z,11.26
2023-03-23T08:39:20.277Z,11.23
2023-03-23T08:40:20.369Z,11.20
2023-03-23T08:41:20.309Z,11.30
2023-03-23T08:42:20.325Z,11.27
2023-03-23T08:43:20.341Z,11.34
2023-03-23T08:44:20.360Z,11.40
2023-03-23T08:45:20.375Z,11.34
2023-03-23T08:46:20.393Z,11.35
2023-03-23T08:47:20.405Z,11.35
2023-03-23T08:48:20.422Z,11.45
2023-03-23T08:49:20.447Z,11.49
2023-03-23T08:50:20.468Z,11.44
2023-03-23T08:51:20.465Z,11.55
2023-03-23T08:52:20.489Z,11.55
2023-03-23T08:53:20.508Z,11.62
2023-03-23T08:54:20.517Z,11.55
2023-03-23T08:55:21.383Z,11.70
2023-03-23T08:56:20.551Z,11.73
2023-03-23T08:57:20.566Z,11.70
2023-03-23T08:58:20.586Z,11.76
2023-03-23T08:59:20.601Z,11.68
2023-03-23T09:00:20.621Z,11.68
2023-03-23T09:01:20.648Z,11.76
2023-03-23T09:02:20.649Z,11.83
2023-03-23T09:03:20.664Z,11.81
2023-03-23T09:04:20.744Z,11.86
2023-03-23T09:05:20.702Z,11.95
2023-03-23T09:06:20.716Z,12.02
2023-03-23T09:07:20.730Z,11.95
2023-03-23T09:08:20.749Z,12.02
2023-03-23T09:09:20.766Z,12.05
2023-03-23T09:10:20.780Z,12.10
2023-03-23T09:11:20.794Z,12.07
2023-03-23T09:12:20.815Z,12.07
2023-03-23T09:13:20.833Z,12.05
2023-03-23T09:14:20.850Z,12.11
2023-03-23T09:15:23.970Z,12.07
2023-03-23T09:16:20.937Z,12.12
2023-03-23T09:17:20.900Z,12.08
2023-03-23T09:18:20.928Z,12.07
2023-03-23T09:19:20.934Z,12.07
2023-03-23T09:20:20.952Z,12.02
2023-03-23T09:21:20.967Z,12.20
2023-03-23T09:22:20.985Z,12.20
2023-03-23T09:23:21.010Z,12.11
2023-03-23T09:24:21.021Z,12.17
2023-03-23T09:25:21.040Z,12.20
2023-03-23T09:26:21.055Z,12.28
2023-03-23T09:27:21.076Z,12.28
2023-03-23T09:28:21.089Z,12.26
2023-03-23T09:29:21.105Z,12.25
2023-03-23T09:30:21.128Z,12.36
2023-03-23T09:31:21.155Z,12.39
2023-03-23T09:32:21.188Z,12.44
2023-03-23T09:33:21.193Z,12.40
2023-03-23T09:34:21.198Z,12.53
2023-03-23T09:35:21.208Z,12.54
2023-03-23T09:36:21.260Z,12.54
2023-03-23T09:37:21.283Z,12.62
2023-03-23T09:38:21.291Z,12.54
2023-03-23T09:39:21.300Z,12.66
2023-03-23T09:40:21.304Z,12.66
2023-03-23T09:41:21.329Z,12.68
2023-03-23T09:42:21.352Z,12.75
2023-03-23T09:43:21.352Z,12.73
2023-03-23T09:44:21.370Z,12.76
2023-03-23T09:45:21.386Z,12.83
2023-03-23T09:46:21.419Z,12.83
2023-03-23T09:47:21.441Z,12.78
2023-03-23T09:48:21.442Z,12.76
2023-03-23T09:49:21.459Z,12.80
2023-03-23T09:50:21.484Z,12.84
2023-03-23T09:51:21.496Z,12.91
2023-03-23T09:52:21.514Z,12.94
2023-03-23T09:53:21.534Z,13.01
2023-03-23T09:54:21.551Z,13.03
2023-03-23T09:55:21.567Z,12.99
2023-03-23T09:56:21.601Z,13.03
2023-03-23T09:57:21.603Z,13.01
2023-03-23T09:58:21.622Z,13.16
2023-03-23T09:59:21.641Z,13.11
2023-03-23T10:00:21.694Z,13.08
2023-03-23T10:01:21.676Z,13.27
2023-03-23T10:02:21.706Z,13.21
2023-03-23T10:03:21.714Z,13.26
2023-03-23T10:04:21.734Z,13.27
2023-03-23T10:05:21.748Z,13.28
2023-03-23T10:06:21.772Z,13.43
2023-03-23T10:07:21.787Z,13.40
2023-03-23T10:08:21.807Z,13.33
2023-03-23T10:09:21.826Z,13.33
2023-03-23T10:10:21.843Z,13.28
2023-03-23T10:11:21.862Z,13.30
2023-03-23T10:12:21.878Z,13.33
2023-03-23T10:13:21.899Z,13.24
2023-03-23T10:14:21.924Z,13.40
2023-03-23T10:15:21.937Z,13.36
2023-03-23T10:16:21.956Z,13.36
2023-03-23T10:17:22.026Z,13.45
2023-03-23T10:18:21.993Z,13.40
2023-03-23T10:19:22.031Z,13.42
2023-03-23T10:20:22.031Z,13.50
2023-03-23T10:21:22.047Z,13.49
2023-03-23T10:22:22.066Z,13.46
2023-03-23T10:23:22.084Z,13.58
2023-03-23T10:24:22.105Z,13.57
2023-03-23T10:25:22.133Z,13.67
2023-03-23T10:26:22.143Z,13.64
2023-03-23T10:27:22.160Z,13.65
2023-03-23T10:28:22.180Z,13.82
2023-03-23T10:29:22.213Z,13.78
2023-03-23T10:30:22.219Z,13.80
2023-03-23T10:31:22.237Z,13.87
2023-03-23T10:32:22.279Z,13.87
2023-03-23T10:33:22.275Z,13.91
2023-03-23T10:34:22.294Z,13.86
2023-03-23T10:35:22.315Z,13.91
2023-03-23T10:36:22.386Z,13.91
2023-03-23T10:37:22.351Z,13.85
2023-03-23T10:38:22.389Z,13.98
2023-03-23T10:39:22.390Z,14.03
2023-03-23T10:40:22.530Z,14.08
2023-03-23T10:41:22.447Z,14.04
2023-03-23T10:42:22.456Z,14.07
2023-03-23T10:43:22.465Z,14.11
2023-03-23T10:44:22.485Z,14.12
2023-03-23T10:45:22.504Z,14.13
2023-03-23T10:46:31.693Z,14.15
2023-03-23T10:47:22.549Z,14.11
2023-03-23T10:48:22.566Z,14.05
2023-03-23T10:49:22.587Z,14.05
2023-03-23T10:50:22.611Z,14.05
2023-03-23T10:51:22.623Z,14.08
2023-03-23T10:52:22.642Z,14.04
2023-03-23T10:53:22.662Z,14.05
2023-03-23T10:54:22.687Z,14.16
2023-03-23T10:55:22.710Z,14.15
2023-03-23T10:56:22.733Z,14.13
2023-03-23T10:57:22.740Z,14.23
2023-03-23T10:58:22.761Z,14.15
2023-03-23T10:59:22.777Z,14.25
2023-03-23T11:00:23.193Z,14.16
2023-03-23T11:01:22.817Z,14.16
2023-03-23T11:02:29.325Z,14.13
2023-03-23T11:03:22.857Z,14.20
2023-03-23T11:04:22.881Z,14.18
2023-03-23T11:05:24.847Z,14.25
2023-03-23T11:06:22.912Z,14.20
2023-03-23T11:07:22.938Z,14.15
2023-03-23T11:08:23.804Z,14.26
2023-03-23T11:09:22.973Z,14.16
2023-03-23T11:10:22.988Z,14.20
2023-03-23T11:11:23.008Z,14.22
2023-03-23T11:12:23.027Z,14.28
2023-03-23T11:13:23.054Z,14.28
2023-03-23T11:14:23.070Z,14.30
2023-03-23T11:15:23.084Z,14.37
2023-03-23T11:16:23.102Z,14.40
2023-03-23T11:17:23.136Z,14.45
2023-03-23T11:18:23.151Z,14.37
2023-03-23T11:19:23.162Z,14.37
2023-03-23T11:20:23.188Z,14.34
2023-03-23T11:21:23.199Z,14.34
2023-03-23T11:22:23.224Z,14.38
2023-03-23T11:23:23.237Z,14.44
2023-03-23T11:24:23.257Z,14.48
2023-03-23T11:25:23.278Z,14.43
2023-03-23T11:26:23.300Z,14.45
2023-03-23T11:27:23.314Z,14.40
2023-03-23T11:28:23.337Z,14.45
2023-03-23T11:29:23.355Z,14.45
2023-03-23T11:30:23.372Z,14.49
2023-03-23T11:31:23.394Z,14.44
2023-03-23T11:32:23.411Z,14.41
2023-03-23T11:33:23.636Z,14.43
2023-03-23T11:34:23.458Z,14.45
2023-03-23T11:35:23.471Z,14.58
2023-03-23T11:36:23.489Z,14.56
2023-03-23T11:37:23.509Z,14.53
2023-03-23T11:38:23.530Z,14.67
2023-03-23T11:39:23.546Z,14.66
2023-03-23T11:40:23.572Z,14.59
2023-03-23T11:41:23.585Z,14.61
2023-03-23T11:42:23.608Z,14.67
2023-03-23T11:43:23.625Z,14.73
2023-03-23T11:44:23.646Z,14.77
2023-03-23T11:45:23.668Z,14.77
2023-03-23T11:46:23.685Z,14.81
2023-03-23T11:47:23.710Z,14.89
2023-03-23T11:48:23.726Z,14.87
2023-03-23T11:49:26.159Z,14.86
2023-03-23T11:50:23.762Z,14.89
2023-03-23T11:51:23.795Z,14.90
2023-03-23T11:52:23.802Z,14.92
2023-03-23T11:53:23.822Z,15.00
2023-03-23T11:54:23.845Z,15.00
2023-03-23T11:55:23.883Z,15.07
2023-03-23T11:56:23.893Z,15.15
2023-03-23T11:57:23.903Z,15.19
2023-03-23T11:58:23.924Z,15.14
2023-03-23T11:59:23.955Z,15.27
2023-03-23T12:00:23.966Z,15.32
2023-03-23T12:01:23.988Z,15.35
2023-03-23T12:02:24.004Z,15.29
2023-03-23T12:03:24.024Z,15.33
2023-03-23T12:04:24.058Z,15.25
2023-03-23T12:05:24.065Z,15.37
2023-03-23T12:06:24.085Z,15.37
2023-03-23T12:07:24.106Z,15.33
2023-03-23T12:08:24.133Z,15.35
2023-03-23T12:09:24.143Z,15.36
2023-03-23T12:10:35.315Z,15.41
2023-03-23T12:11:24.185Z,15.39
2023-03-23T12:12:24.209Z,15.29
2023-03-23T12:13:24.226Z,15.33
2023-03-23T12:14:25.152Z,15.35
2023-03-23T12:15:24.280Z,15.27
2023-03-23T12:16:24.321Z,15.44
2023-03-23T12:17:24.368Z,15.50
2023-03-23T12:18:24.332Z,15.47
2023-03-23T12:19:24.346Z,15.50
2023-03-23T12:20:27.037Z,15.51
2023-03-23T12:21:24.390Z,15.54
2023-03-23T12:22:24.409Z,15.54
2023-03-23T12:23:24.428Z,15.54
2023-03-23T12:24:24.454Z,15.43
2023-03-23T12:25:24.471Z,15.43
2023-03-23T12:26:24.498Z,15.41
2023-03-23T12:27:24.510Z,15.43
2023-03-23T12:28:24.529Z,15.45
2023-03-23T12:29:24.552Z,15.47
2023-03-23T12:30:24.569Z,15.50
2023-03-23T12:31:24.594Z,15.44
2023-03-23T12:32:24.632Z,15.51
2023-03-23T12:33:24.630Z,15.50
2023-03-23T12:34:24.652Z,15.47
2023-03-23T12:35:25.488Z,15.39
2023-03-23T12:36:24.746Z,15.43
2023-03-23T12:37:24.731Z,15.37
2023-03-23T12:38:24.739Z,15.41
2023-03-23T12:39:24.752Z,15.44
2023-03-23T12:40:24.773Z,15.44
2023-03-23T12:41:24.794Z,15.33
2023-03-23T12:42:24.813Z,15.36
2023-03-23T12:43:24.835Z,15.43
2023-03-23T12:44:24.851Z,15.44
2023-03-23T12:45:24.890Z,15.43
2023-03-23T12:46:24.890Z,15.50
2023-03-23T12:47:24.939Z,15.50
2023-03-23T12:48:24.932Z,15.48
2023-03-23T12:49:24.950Z,15.48
2023-03-23T12:50:24.976Z,15.51
2023-03-23T12:51:24.992Z,15.44
2023-03-23T12:52:25.014Z,15.55
2023-03-23T12:53:25.034Z,15.60
2023-03-23T12:54:25.051Z,15.63
2023-03-23T12:55:25.070Z,15.70
2023-03-23T12:56:25.101Z,15.69
2023-03-23T12:57:25.113Z,15.76
2023-03-23T12:58:25.138Z,15.84